sensor_id;sensor_type;location;lat;lon;timestamp;temperature;humidity
20246;DHT22;10281;54.406;18.556;2023-02-28T00:06:09;-2.40;99.90
20246;DHT22;10281;54.406;18.556;2023-02-28T00:18:26;-2.40;99.90
20246;DHT22;10281;54.406;18.556;2023-02-28T00:23:19;-2.10;99.90
20246;DHT22;10281;54.406;18.556;2023-02-28T00:30:39;-2.50;99.90
20246;DHT22;10281;54.406;18.556;2023-02-28T00:35:33;-2.70;99.90
20246;DHT22;10281;54.406;18.556;2023-02-28T00:37:59;-2.60;99.90
20246;DHT22;10281;54.406;18.556;2023-02-28T00:50:18;-2.30;99.90
20246;DHT22;10281;54.406;18.556;2023-02-28T00:55:11;-2.50;99.90
20246;DHT22;10281;54.406;18.556;2023-02-28T00:57:37;-2.60;99.90
20246;DHT22;10281;54.406;18.556;2023-02-28T01:02:32;-2.70;99.90
20246;DHT22;10281;54.406;18.556;2023-02-28T01:04:59;-2.70;99.90
20246;DHT22;10281;54.406;18.556;2023-02-28T01:07:25;-2.50;99.90
20246;DHT22;10281;54.406;18.556;2023-02-28T01:12:18;-3.00;99.90
20246;DHT22;10281;54.406;18.556;2023-02-28T01:14:45;-2.90;99.90
20246;DHT22;10281;54.406;18.556;2023-02-28T01:19:38;-2.70;99.90
20246;DHT22;10281;54.406;18.556;2023-02-28T01:22:06;-2.90;99.90
20246;DHT22;10281;54.406;18.556;2023-02-28T01:24:33;-2.90;99.90
20246;DHT22;10281;54.406;18.556;2023-02-28T01:36:46;-2.80;99.90
20246;DHT22;10281;54.406;18.556;2023-02-28T01:41:40;-2.60;99.90
20246;DHT22;10281;54.406;18.556;2023-02-28T01:46:36;-2.90;99.90
20246;DHT22;10281;54.406;18.556;2023-02-28T01:49:09;-3.10;99.90
20246;DHT22;10281;54.406;18.556;2023-02-28T01:51:39;-3.00;99.90
20246;DHT22;10281;54.406;18.556;2023-02-28T01:56:38;-2.80;99.90
20246;DHT22;10281;54.406;18.556;2023-02-28T02:06:34;-3.00;99.90
20246;DHT22;10281;54.406;18.556;2023-02-28T02:08:59;-3.10;99.90
20246;DHT22;10281;54.406;18.556;2023-02-28T02:16:56;-3.10;99.90
20246;DHT22;10281;54.406;18.556;2023-02-28T02:19:34;-3.10;99.90
20246;DHT22;10281;54.406;18.556;2023-02-28T02:27:20;-2.70;99.90
20246;DHT22;10281;54.406;18.556;2023-02-28T02:30:04;-2.90;99.90
20246;DHT22;10281;54.406;18.556;2023-02-28T02:32:39;-2.60;99.90
20246;DHT22;10281;54.406;18.556;2023-02-28T02:35:15;-2.90;99.90
20246;DHT22;10281;54.406;18.556;2023-02-28T02:40:36;-2.80;99.90
20246;DHT22;10281;54.406;18.556;2023-02-28T02:43:13;-2.70;99.90
20246;DHT22;10281;54.406;18.556;2023-02-28T02:45:45;-3.00;99.90
20246;DHT22;10281;54.406;18.556;2023-02-28T02:48:16;-3.00;99.90
20246;DHT22;10281;54.406;18.556;2023-02-28T02:50:47;-2.70;99.90
20246;DHT22;10281;54.406;18.556;2023-02-28T02:53:17;-3.00;99.90
20246;DHT22;10281;54.406;18.556;2023-02-28T02:55:47;-3.10;99.90
20246;DHT22;10281;54.406;18.556;2023-02-28T02:58:19;-3.10;99.90
20246;DHT22;10281;54.406;18.556;2023-02-28T03:00:51;-2.90;99.90
20246;DHT22;10281;54.406;18.556;2023-02-28T03:03:19;-3.50;99.90
20246;DHT22;10281;54.406;18.556;2023-02-28T03:05:50;-3.20;99.90
20246;DHT22;10281;54.406;18.556;2023-02-28T03:08:17;-3.00;99.90
20246;DHT22;10281;54.406;18.556;2023-02-28T03:10:46;-3.10;99.90
20246;DHT22;10281;54.406;18.556;2023-02-28T03:14:32;-3.20;99.90
20246;DHT22;10281;54.406;18.556;2023-02-28T03:19:13;-3.00;99.90
20246;DHT22;10281;54.406;18.556;2023-02-28T03:21:43;-3.20;99.90
20246;DHT22;10281;54.406;18.556;2023-02-28T03:24:19;-3.10;99.90
20246;DHT22;10281;54.406;18.556;2023-02-28T03:26:52;-3.20;99.90
20246;DHT22;10281;54.406;18.556;2023-02-28T03:29:23;-3.10;99.90
20246;DHT22;10281;54.406;18.556;2023-02-28T03:31:58;-3.10;99.90
20246;DHT22;10281;54.406;18.556;2023-02-28T03:34:28;-3.10;99.90
20246;DHT22;10281;54.406;18.556;2023-02-28T03:36:59;-3.40;99.90
20246;DHT22;10281;54.406;18.556;2023-02-28T03:39:31;-3.20;99.90
20246;DHT22;10281;54.406;18.556;2023-02-28T03:42:00;-3.30;99.90
20246;DHT22;10281;54.406;18.556;2023-02-28T03:44:34;-3.20;99.90
20246;DHT22;10281;54.406;18.556;2023-02-28T03:47:04;-3.20;99.90
20246;DHT22;10281;54.406;18.556;2023-02-28T03:49:36;-3.10;99.90
20246;DHT22;10281;54.406;18.556;2023-02-28T03:52:06;-3.10;99.90
20246;DHT22;10281;54.406;18.556;2023-02-28T03:54:42;-3.30;99.90
20246;DHT22;10281;54.406;18.556;2023-02-28T03:57:50;-3.20;99.90
20246;DHT22;10281;54.406;18.556;2023-02-28T03:59:59;-3.40;99.90
20246;DHT22;10281;54.406;18.556;2023-02-28T04:02:30;-3.50;99.90
20246;DHT22;10281;54.406;18.556;2023-02-28T04:04:56;-3.40;99.90
20246;DHT22;10281;54.406;18.556;2023-02-28T04:07:23;-3.50;99.90
20246;DHT22;10281;54.406;18.556;2023-02-28T04:09:49;-3.50;99.90
20246;DHT22;10281;54.406;18.556;2023-02-28T04:12:16;-3.30;99.90
20246;DHT22;10281;54.406;18.556;2023-02-28T04:14:43;-3.50;99.90
20246;DHT22;10281;54.406;18.556;2023-02-28T04:17:09;-3.20;99.90
20246;DHT22;10281;54.406;18.556;2023-02-28T04:19:36;-3.40;99.90
20246;DHT22;10281;54.406;18.556;2023-02-28T04:22:02;-3.60;99.90
20246;DHT22;10281;54.406;18.556;2023-02-28T04:24:29;-3.40;99.90
20246;DHT22;10281;54.406;18.556;2023-02-28T04:26:57;-3.40;99.90
20246;DHT22;10281;54.406;18.556;2023-02-28T04:29:27;-2.90;99.90
20246;DHT22;10281;54.406;18.556;2023-02-28T04:31:54;-3.40;99.90
20246;DHT22;10281;54.406;18.556;2023-02-28T04:34:27;-3.40;99.90
20246;DHT22;10281;54.406;18.556;2023-02-28T04:36:54;-3.20;99.90
20246;DHT22;10281;54.406;18.556;2023-02-28T04:39:23;-3.40;99.90
20246;DHT22;10281;54.406;18.556;2023-02-28T04:41:50;-3.50;99.90
20246;DHT22;10281;54.406;18.556;2023-02-28T04:44:17;-3.50;99.90
20246;DHT22;10281;54.406;18.556;2023-02-28T04:46:44;-3.60;99.90
20246;DHT22;10281;54.406;18.556;2023-02-28T04:49:12;-3.60;99.90
20246;DHT22;10281;54.406;18.556;2023-02-28T04:51:39;-4.00;99.90
20246;DHT22;10281;54.406;18.556;2023-02-28T04:54:06;-3.80;99.90
20246;DHT22;10281;54.406;18.556;2023-02-28T04:56:33;-3.60;99.90
20246;DHT22;10281;54.406;18.556;2023-02-28T04:59:00;-3.60;99.90
20246;DHT22;10281;54.406;18.556;2023-02-28T05:01:30;-3.70;99.90
20246;DHT22;10281;54.406;18.556;2023-02-28T05:03:59;-3.70;99.90
20246;DHT22;10281;54.406;18.556;2023-02-28T05:06:29;-3.80;99.90
20246;DHT22;10281;54.406;18.556;2023-02-28T05:08:56;-3.70;99.90
20246;DHT22;10281;54.406;18.556;2023-02-28T05:11:27;-3.70;99.90
20246;DHT22;10281;54.406;18.556;2023-02-28T05:13:55;-3.70;99.90
20246;DHT22;10281;54.406;18.556;2023-02-28T05:16:22;-3.30;99.90
20246;DHT22;10281;54.406;18.556;2023-02-28T05:18:49;-3.60;99.90
20246;DHT22;10281;54.406;18.556;2023-02-28T05:21:27;-3.50;99.90
20246;DHT22;10281;54.406;18.556;2023-02-28T05:23:55;-3.70;99.90
20246;DHT22;10281;54.406;18.556;2023-02-28T05:26:22;-3.60;99.90
20246;DHT22;10281;54.406;18.556;2023-02-28T05:28:49;-3.60;99.90
20246;DHT22;10281;54.406;18.556;2023-02-28T05:31:15;-3.40;99.90
20246;DHT22;10281;54.406;18.556;2023-02-28T05:33:42;-3.60;99.90
20246;DHT22;10281;54.406;18.556;2023-02-28T05:36:09;-3.60;99.90
20246;DHT22;10281;54.406;18.556;2023-02-28T05:38:36;-3.60;99.90
20246;DHT22;10281;54.406;18.556;2023-02-28T05:41:06;-3.60;99.90
20246;DHT22;10281;54.406;18.556;2023-02-28T05:43:33;-3.70;99.90
20246;DHT22;10281;54.406;18.556;2023-02-28T05:46:03;-3.50;99.90
20246;DHT22;10281;54.406;18.556;2023-02-28T05:48:30;-3.60;99.90
20246;DHT22;10281;54.406;18.556;2023-02-28T05:50:57;-3.40;99.90
20246;DHT22;10281;54.406;18.556;2023-02-28T05:53:24;-3.50;99.90
20246;DHT22;10281;54.406;18.556;2023-02-28T05:55:52;-3.60;99.90
20246;DHT22;10281;54.406;18.556;2023-02-28T05:58:19;-3.30;99.90
20246;DHT22;10281;54.406;18.556;2023-02-28T06:00:46;-3.50;99.90
20246;DHT22;10281;54.406;18.556;2023-02-28T06:03:13;-3.40;99.90
20246;DHT22;10281;54.406;18.556;2023-02-28T06:05:39;-3.50;99.90
20246;DHT22;10281;54.406;18.556;2023-02-28T06:08:06;-3.30;99.90
20246;DHT22;10281;54.406;18.556;2023-02-28T06:10:34;-3.30;99.90
20246;DHT22;10281;54.406;18.556;2023-02-28T06:13:02;-3.10;99.90
20246;DHT22;10281;54.406;18.556;2023-02-28T06:15:30;-3.20;99.90
20246;DHT22;10281;54.406;18.556;2023-02-28T06:17:58;-3.20;99.90
20246;DHT22;10281;54.406;18.556;2023-02-28T06:20:27;-3.30;99.90
20246;DHT22;10281;54.406;18.556;2023-02-28T06:22:56;-3.20;99.90
20246;DHT22;10281;54.406;18.556;2023-02-28T06:27:52;-3.30;99.90
20246;DHT22;10281;54.406;18.556;2023-02-28T06:30:19;-3.10;99.90
20246;DHT22;10281;54.406;18.556;2023-02-28T06:32:47;-3.10;99.90
20246;DHT22;10281;54.406;18.556;2023-02-28T06:35:15;-2.90;99.90
20246;DHT22;10281;54.406;18.556;2023-02-28T06:37:42;-2.90;99.90
20246;DHT22;10281;54.406;18.556;2023-02-28T06:40:10;-3.00;99.90
20246;DHT22;10281;54.406;18.556;2023-02-28T06:45:06;-2.60;99.90
20246;DHT22;10281;54.406;18.556;2023-02-28T06:47:36;-2.60;99.90
20246;DHT22;10281;54.406;18.556;2023-02-28T06:50:05;-2.40;99.90
20246;DHT22;10281;54.406;18.556;2023-02-28T06:52:32;-2.60;99.90
20246;DHT22;10281;54.406;18.556;2023-02-28T06:55:01;-2.40;99.90
20246;DHT22;10281;54.406;18.556;2023-02-28T06:57:29;-2.70;99.90
20246;DHT22;10281;54.406;18.556;2023-02-28T06:59:59;-2.50;99.90
20246;DHT22;10281;54.406;18.556;2023-02-28T07:02:26;-2.40;99.90
20246;DHT22;10281;54.406;18.556;2023-02-28T07:04:53;-2.30;99.90
20246;DHT22;10281;54.406;18.556;2023-02-28T07:07:20;-2.00;99.90
20246;DHT22;10281;54.406;18.556;2023-02-28T07:09:47;-2.00;99.90
20246;DHT22;10281;54.406;18.556;2023-02-28T07:12:14;-2.10;99.90
20246;DHT22;10281;54.406;18.556;2023-02-28T07:14:40;-2.10;99.90
20246;DHT22;10281;54.406;18.556;2023-02-28T07:17:08;-1.90;99.90
20246;DHT22;10281;54.406;18.556;2023-02-28T07:19:36;-1.90;99.90
20246;DHT22;10281;54.406;18.556;2023-02-28T07:22:03;-1.90;99.90
20246;DHT22;10281;54.406;18.556;2023-02-28T07:24:30;-1.80;99.90
20246;DHT22;10281;54.406;18.556;2023-02-28T07:29:23;-1.80;99.90
20246;DHT22;10281;54.406;18.556;2023-02-28T07:31:50;-1.60;99.90
20246;DHT22;10281;54.406;18.556;2023-02-28T07:34:20;-1.10;99.90
20246;DHT22;10281;54.406;18.556;2023-02-28T07:36:46;-1.40;99.90
20246;DHT22;10281;54.406;18.556;2023-02-28T07:39:13;-1.40;99.90
20246;DHT22;10281;54.406;18.556;2023-02-28T07:41:40;-0.60;99.90
20246;DHT22;10281;54.406;18.556;2023-02-28T07:44:10;-1.10;99.90
20246;DHT22;10281;54.406;18.556;2023-02-28T07:46:37;-1.20;99.90
20246;DHT22;10281;54.406;18.556;2023-02-28T07:49:05;-1.00;99.90
20246;DHT22;10281;54.406;18.556;2023-02-28T07:51:32;-0.90;99.90
20246;DHT22;10281;54.406;18.556;2023-02-28T07:53:59;-0.80;99.90
20246;DHT22;10281;54.406;18.556;2023-02-28T07:56:26;-0.70;99.90
20246;DHT22;10281;54.406;18.556;2023-02-28T07:58:52;-0.60;99.90
20246;DHT22;10281;54.406;18.556;2023-02-28T08:01:19;-0.40;99.90
20246;DHT22;10281;54.406;18.556;2023-02-28T08:03:46;-0.50;99.90
20246;DHT22;10281;54.406;18.556;2023-02-28T08:06:19;-0.40;99.90
20246;DHT22;10281;54.406;18.556;2023-02-28T08:08:47;-0.30;99.90
20246;DHT22;10281;54.406;18.556;2023-02-28T08:11:15;-0.50;99.90
20246;DHT22;10281;54.406;18.556;2023-02-28T08:13:42;-0.20;99.90
20246;DHT22;10281;54.406;18.556;2023-02-28T08:16:10;-0.10;99.90
20246;DHT22;10281;54.406;18.556;2023-02-28T08:18:40;-0.10;99.90
20246;DHT22;10281;54.406;18.556;2023-02-28T08:21:08;0.00;99.90
20246;DHT22;10281;54.406;18.556;2023-02-28T08:23:35;0.00;99.90
20246;DHT22;10281;54.406;18.556;2023-02-28T08:26:03;0.10;99.90
20246;DHT22;10281;54.406;18.556;2023-02-28T08:28:30;0.10;99.90
20246;DHT22;10281;54.406;18.556;2023-02-28T08:30:57;0.20;99.90
20246;DHT22;10281;54.406;18.556;2023-02-28T08:33:25;0.20;99.90
20246;DHT22;10281;54.406;18.556;2023-02-28T08:35:55;0.50;99.90
20246;DHT22;10281;54.406;18.556;2023-02-28T08:38:22;0.60;99.90
20246;DHT22;10281;54.406;18.556;2023-02-28T08:40:50;0.40;99.90
20246;DHT22;10281;54.406;18.556;2023-02-28T08:43:18;0.40;99.90
20246;DHT22;10281;54.406;18.556;2023-02-28T08:45:45;0.80;99.90
20246;DHT22;10281;54.406;18.556;2023-02-28T08:48:11;0.80;99.90
20246;DHT22;10281;54.406;18.556;2023-02-28T08:50:39;0.70;99.90
20246;DHT22;10281;54.406;18.556;2023-02-28T08:53:06;0.80;99.90
20246;DHT22;10281;54.406;18.556;2023-02-28T08:55:32;0.80;99.90
20246;DHT22;10281;54.406;18.556;2023-02-28T08:57:59;0.90;99.90
20246;DHT22;10281;54.406;18.556;2023-02-28T09:00:27;1.00;99.90
20246;DHT22;10281;54.406;18.556;2023-02-28T09:02:53;1.10;99.90
20246;DHT22;10281;54.406;18.556;2023-02-28T09:05:20;1.10;99.90
20246;DHT22;10281;54.406;18.556;2023-02-28T09:07:47;1.20;99.90
20246;DHT22;10281;54.406;18.556;2023-02-28T09:10:13;1.20;99.90
20246;DHT22;10281;54.406;18.556;2023-02-28T09:15:09;1.20;99.90
20246;DHT22;10281;54.406;18.556;2023-02-28T09:17:35;1.40;99.90
20246;DHT22;10281;54.406;18.556;2023-02-28T09:20:02;1.50;99.90
20246;DHT22;10281;54.406;18.556;2023-02-28T09:22:29;1.80;99.90
20246;DHT22;10281;54.406;18.556;2023-02-28T09:24:56;1.60;99.90
20246;DHT22;10281;54.406;18.556;2023-02-28T09:27:22;1.50;99.90
20246;DHT22;10281;54.406;18.556;2023-02-28T09:29:49;1.70;99.90
20246;DHT22;10281;54.406;18.556;2023-02-28T09:34:43;1.90;99.90
20246;DHT22;10281;54.406;18.556;2023-02-28T09:37:10;1.90;99.90
20246;DHT22;10281;54.406;18.556;2023-02-28T09:39:37;1.90;99.90
20246;DHT22;10281;54.406;18.556;2023-02-28T09:42:04;2.20;99.90
20246;DHT22;10281;54.406;18.556;2023-02-28T09:44:35;2.00;99.90
20246;DHT22;10281;54.406;18.556;2023-02-28T09:47:10;2.10;99.90
20246;DHT22;10281;54.406;18.556;2023-02-28T09:49:40;1.90;99.90
20246;DHT22;10281;54.406;18.556;2023-02-28T09:52:14;2.20;99.90
20246;DHT22;10281;54.406;18.556;2023-02-28T09:54:41;2.50;99.90
20246;DHT22;10281;54.406;18.556;2023-02-28T09:57:45;2.30;99.90
20246;DHT22;10281;54.406;18.556;2023-02-28T10:00:05;2.60;99.90
20246;DHT22;10281;54.406;18.556;2023-02-28T10:02:46;2.40;99.90
20246;DHT22;10281;54.406;18.556;2023-02-28T10:05:15;2.50;99.90
20246;DHT22;10281;54.406;18.556;2023-02-28T10:08:02;2.60;99.90
20246;DHT22;10281;54.406;18.556;2023-02-28T10:10:44;2.70;99.90
20246;DHT22;10281;54.406;18.556;2023-02-28T10:13:22;2.80;99.90
20246;DHT22;10281;54.406;18.556;2023-02-28T10:15:52;3.00;99.90
20246;DHT22;10281;54.406;18.556;2023-02-28T10:18:25;2.70;99.90
20246;DHT22;10281;54.406;18.556;2023-02-28T10:20:53;2.90;99.90
20246;DHT22;10281;54.406;18.556;2023-02-28T10:23:33;3.00;99.90
20246;DHT22;10281;54.406;18.556;2023-02-28T10:28:36;3.00;99.90
20246;DHT22;10281;54.406;18.556;2023-02-28T10:31:04;3.10;99.90
20246;DHT22;10281;54.406;18.556;2023-02-28T10:33:34;3.10;99.90
20246;DHT22;10281;54.406;18.556;2023-02-28T10:36:02;3.50;99.90
20246;DHT22;10281;54.406;18.556;2023-02-28T10:38:35;3.30;99.90
20246;DHT22;10281;54.406;18.556;2023-02-28T10:41:09;3.30;99.90
20246;DHT22;10281;54.406;18.556;2023-02-28T10:43:39;3.40;99.90
20246;DHT22;10281;54.406;18.556;2023-02-28T10:46:18;3.30;99.90
20246;DHT22;10281;54.406;18.556;2023-02-28T10:49:12;3.60;99.90
20246;DHT22;10281;54.406;18.556;2023-02-28T10:51:40;3.40;99.90
20246;DHT22;10281;54.406;18.556;2023-02-28T10:54:18;3.60;99.90
20246;DHT22;10281;54.406;18.556;2023-02-28T10:56:45;3.50;99.90
20246;DHT22;10281;54.406;18.556;2023-02-28T10:59:29;3.50;99.90
20246;DHT22;10281;54.406;18.556;2023-02-28T11:01:57;3.60;99.90
20246;DHT22;10281;54.406;18.556;2023-02-28T11:04:36;3.60;99.90
20246;DHT22;10281;54.406;18.556;2023-02-28T11:07:23;3.70;99.90
20246;DHT22;10281;54.406;18.556;2023-02-28T11:09:54;3.30;99.90
20246;DHT22;10281;54.406;18.556;2023-02-28T11:12:26;3.70;99.90
20246;DHT22;10281;54.406;18.556;2023-02-28T11:14:57;3.70;99.90
20246;DHT22;10281;54.406;18.556;2023-02-28T11:17:27;3.70;99.90
20246;DHT22;10281;54.406;18.556;2023-02-28T11:19:57;3.60;99.90
20246;DHT22;10281;54.406;18.556;2023-02-28T11:22:27;3.70;99.90
20246;DHT22;10281;54.406;18.556;2023-02-28T11:24:59;3.70;99.90
20246;DHT22;10281;54.406;18.556;2023-02-28T11:27:44;3.50;99.90
20246;DHT22;10281;54.406;18.556;2023-02-28T11:30:37;3.60;99.90
20246;DHT22;10281;54.406;18.556;2023-02-28T11:33:20;3.60;99.90
20246;DHT22;10281;54.406;18.556;2023-02-28T11:35:49;3.80;99.90
20246;DHT22;10281;54.406;18.556;2023-02-28T11:38:16;3.70;99.90
20246;DHT22;10281;54.406;18.556;2023-02-28T11:40:48;3.70;99.90
20246;DHT22;10281;54.406;18.556;2023-02-28T11:43:30;3.60;99.90
20246;DHT22;10281;54.406;18.556;2023-02-28T11:46:14;3.80;99.90
20246;DHT22;10281;54.406;18.556;2023-02-28T11:48:53;3.80;99.90
20246;DHT22;10281;54.406;18.556;2023-02-28T11:51:24;4.30;99.90
20246;DHT22;10281;54.406;18.556;2023-02-28T11:54:02;3.70;99.90
20246;DHT22;10281;54.406;18.556;2023-02-28T11:56:31;3.70;99.90
20246;DHT22;10281;54.406;18.556;2023-02-28T11:59:09;3.70;99.90
20246;DHT22;10281;54.406;18.556;2023-02-28T12:01:58;3.80;99.90
20246;DHT22;10281;54.406;18.556;2023-02-28T12:04:43;4.10;99.90
20246;DHT22;10281;54.406;18.556;2023-02-28T12:07:29;3.80;99.90
20246;DHT22;10281;54.406;18.556;2023-02-28T12:10:04;4.00;99.90
20246;DHT22;10281;54.406;18.556;2023-02-28T12:13:18;3.90;99.90
20246;DHT22;10281;54.406;18.556;2023-02-28T12:18:07;3.90;99.90
20246;DHT22;10281;54.406;18.556;2023-02-28T12:25:44;4.00;99.90
20246;DHT22;10281;54.406;18.556;2023-02-28T12:28:13;3.80;99.90
20246;DHT22;10281;54.406;18.556;2023-02-28T12:30:49;3.90;99.90
20246;DHT22;10281;54.406;18.556;2023-02-28T12:33:17;4.10;99.90
20246;DHT22;10281;54.406;18.556;2023-02-28T12:35:52;4.00;99.90
20246;DHT22;10281;54.406;18.556;2023-02-28T12:38:26;4.10;99.90
20246;DHT22;10281;54.406;18.556;2023-02-28T12:40:59;4.20;99.90
20246;DHT22;10281;54.406;18.556;2023-02-28T12:43:33;4.00;99.90
20246;DHT22;10281;54.406;18.556;2023-02-28T12:46:21;4.20;99.90
20246;DHT22;10281;54.406;18.556;2023-02-28T12:48:52;4.00;99.90
20246;DHT22;10281;54.406;18.556;2023-02-28T12:51:19;4.20;99.90
20246;DHT22;10281;54.406;18.556;2023-02-28T12:53:57;4.10;99.90
20246;DHT22;10281;54.406;18.556;2023-02-28T12:56:38;4.50;99.90
20246;DHT22;10281;54.406;18.556;2023-02-28T12:59:22;4.50;99.90
20246;DHT22;10281;54.406;18.556;2023-02-28T13:02:25;4.30;99.90
20246;DHT22;10281;54.406;18.556;2023-02-28T13:04:49;4.80;99.90
20246;DHT22;10281;54.406;18.556;2023-02-28T13:07:32;4.40;99.90
20246;DHT22;10281;54.406;18.556;2023-02-28T13:10:02;4.40;99.90
20246;DHT22;10281;54.406;18.556;2023-02-28T13:12:30;4.40;99.90
20246;DHT22;10281;54.406;18.556;2023-02-28T13:15:08;4.60;99.90
20246;DHT22;10281;54.406;18.556;2023-02-28T13:17:39;4.20;99.90
20246;DHT22;10281;54.406;18.556;2023-02-28T13:20:33;4.80;99.90
20246;DHT22;10281;54.406;18.556;2023-02-28T13:22:55;4.50;99.90
20246;DHT22;10281;54.406;18.556;2023-02-28T13:29:01;4.30;99.90
20246;DHT22;10281;54.406;18.556;2023-02-28T13:31:28;5.10;99.90
20246;DHT22;10281;54.406;18.556;2023-02-28T13:34:13;4.40;99.90
20246;DHT22;10281;54.406;18.556;2023-02-28T13:36:40;4.40;99.90
20246;DHT22;10281;54.406;18.556;2023-02-28T13:39:47;4.50;99.90
20246;DHT22;10281;54.406;18.556;2023-02-28T13:42:22;4.50;99.90
20246;DHT22;10281;54.406;18.556;2023-02-28T13:44:29;4.30;99.90
20246;DHT22;10281;54.406;18.556;2023-02-28T13:47:16;4.40;99.90
20246;DHT22;10281;54.406;18.556;2023-02-28T13:49:42;4.60;99.90
20246;DHT22;10281;54.406;18.556;2023-02-28T13:52:17;4.60;99.90
20246;DHT22;10281;54.406;18.556;2023-02-28T13:54:52;4.60;99.90
20246;DHT22;10281;54.406;18.556;2023-02-28T13:57:30;4.40;99.90
20246;DHT22;10281;54.406;18.556;2023-02-28T14:00:15;4.40;99.90
20246;DHT22;10281;54.406;18.556;2023-02-28T14:05:22;4.40;99.90
20246;DHT22;10281;54.406;18.556;2023-02-28T14:07:54;4.50;99.90
20246;DHT22;10281;54.406;18.556;2023-02-28T14:10:28;4.50;99.90
20246;DHT22;10281;54.406;18.556;2023-02-28T14:13:01;4.40;99.90
20246;DHT22;10281;54.406;18.556;2023-02-28T14:15:36;4.40;99.90
20246;DHT22;10281;54.406;18.556;2023-02-28T14:18:05;4.40;99.90
20246;DHT22;10281;54.406;18.556;2023-02-28T14:20:33;4.30;99.90
20246;DHT22;10281;54.406;18.556;2023-02-28T14:23:12;4.50;99.90
20246;DHT22;10281;54.406;18.556;2023-02-28T14:25:47;4.50;99.90
20246;DHT22;10281;54.406;18.556;2023-02-28T14:31:23;4.10;99.90
20246;DHT22;10281;54.406;18.556;2023-02-28T14:41:24;4.20;99.90
20246;DHT22;10281;54.406;18.556;2023-02-28T14:43:54;4.30;99.90
20246;DHT22;10281;54.406;18.556;2023-02-28T14:46:23;4.40;99.90
20246;DHT22;10281;54.406;18.556;2023-02-28T14:48:51;4.30;99.90
20246;DHT22;10281;54.406;18.556;2023-02-28T14:51:20;4.20;99.90
20246;DHT22;10281;54.406;18.556;2023-02-28T14:53:52;4.30;99.90
20246;DHT22;10281;54.406;18.556;2023-02-28T14:56:26;4.20;99.90
20246;DHT22;10281;54.406;18.556;2023-02-28T14:58:54;4.20;99.90
20246;DHT22;10281;54.406;18.556;2023-02-28T15:01:23;4.10;99.90
20246;DHT22;10281;54.406;18.556;2023-02-28T15:04:02;4.30;99.90
20246;DHT22;10281;54.406;18.556;2023-02-28T15:06:30;4.20;99.90
20246;DHT22;10281;54.406;18.556;2023-02-28T15:09:17;4.20;99.90
20246;DHT22;10281;54.406;18.556;2023-02-28T15:11:47;4.20;99.90
20246;DHT22;10281;54.406;18.556;2023-02-28T15:14:19;4.20;99.90
20246;DHT22;10281;54.406;18.556;2023-02-28T15:16:50;3.70;99.90
20246;DHT22;10281;54.406;18.556;2023-02-28T15:19:23;4.10;99.90
20246;DHT22;10281;54.406;18.556;2023-02-28T15:21:55;4.20;99.90
20246;DHT22;10281;54.406;18.556;2023-02-28T15:24:31;4.20;99.90
20246;DHT22;10281;54.406;18.556;2023-02-28T15:27:00;4.10;99.90
20246;DHT22;10281;54.406;18.556;2023-02-28T15:29:29;4.10;99.90
20246;DHT22;10281;54.406;18.556;2023-02-28T15:32:06;4.10;99.90
20246;DHT22;10281;54.406;18.556;2023-02-28T15:34:37;4.10;99.90
20246;DHT22;10281;54.406;18.556;2023-02-28T15:37:25;4.10;99.90
20246;DHT22;10281;54.406;18.556;2023-02-28T15:39:55;4.00;99.90
20246;DHT22;10281;54.406;18.556;2023-02-28T15:42:27;3.90;99.90
20246;DHT22;10281;54.406;18.556;2023-02-28T15:44:52;4.10;99.90
20246;DHT22;10281;54.406;18.556;2023-02-28T15:47:22;4.10;99.90
20246;DHT22;10281;54.406;18.556;2023-02-28T15:49:52;3.90;99.90
20246;DHT22;10281;54.406;18.556;2023-02-28T15:52:38;3.90;99.90
20246;DHT22;10281;54.406;18.556;2023-02-28T15:55:10;3.70;99.90
20246;DHT22;10281;54.406;18.556;2023-02-28T15:57:39;3.90;99.90
20246;DHT22;10281;54.406;18.556;2023-02-28T16:00:11;3.80;99.90
20246;DHT22;10281;54.406;18.556;2023-02-28T16:02:38;3.70;99.90
20246;DHT22;10281;54.406;18.556;2023-02-28T16:05:21;3.70;99.90
20246;DHT22;10281;54.406;18.556;2023-02-28T16:07:50;3.70;99.90
20246;DHT22;10281;54.406;18.556;2023-02-28T16:10:16;3.60;99.90
20246;DHT22;10281;54.406;18.556;2023-02-28T16:12:43;3.50;99.90
20246;DHT22;10281;54.406;18.556;2023-02-28T16:15:17;3.60;99.90
20246;DHT22;10281;54.406;18.556;2023-02-28T16:17:44;3.30;99.90
20246;DHT22;10281;54.406;18.556;2023-02-28T16:20:16;3.40;99.90
20246;DHT22;10281;54.406;18.556;2023-02-28T16:22:43;3.40;99.90
20246;DHT22;10281;54.406;18.556;2023-02-28T16:25:13;3.50;99.90
20246;DHT22;10281;54.406;18.556;2023-02-28T16:27:40;3.30;99.90
20246;DHT22;10281;54.406;18.556;2023-02-28T16:30:19;3.30;99.90
20246;DHT22;10281;54.406;18.556;2023-02-28T16:32:46;3.20;99.90
20246;DHT22;10281;54.406;18.556;2023-02-28T16:35:13;3.20;99.90
20246;DHT22;10281;54.406;18.556;2023-02-28T16:37:40;3.10;99.90
20246;DHT22;10281;54.406;18.556;2023-02-28T16:40:18;3.00;99.90
20246;DHT22;10281;54.406;18.556;2023-02-28T16:42:49;3.00;99.90
20246;DHT22;10281;54.406;18.556;2023-02-28T16:45:22;3.00;99.90
20246;DHT22;10281;54.406;18.556;2023-02-28T16:47:49;2.90;99.90
20246;DHT22;10281;54.406;18.556;2023-02-28T16:50:20;2.80;99.90
20246;DHT22;10281;54.406;18.556;2023-02-28T16:52:47;2.90;99.90
20246;DHT22;10281;54.406;18.556;2023-02-28T16:55:15;2.80;99.90
20246;DHT22;10281;54.406;18.556;2023-02-28T17:00:12;2.60;99.90
20246;DHT22;10281;54.406;18.556;2023-02-28T17:02:40;2.80;99.90
20246;DHT22;10281;54.406;18.556;2023-02-28T17:05:08;2.70;99.90
20246;DHT22;10281;54.406;18.556;2023-02-28T17:07:35;2.70;99.90
20246;DHT22;10281;54.406;18.556;2023-02-28T17:10:02;2.40;99.90
20246;DHT22;10281;54.406;18.556;2023-02-28T17:12:31;2.50;99.90
20246;DHT22;10281;54.406;18.556;2023-02-28T17:14:57;2.60;99.90
20246;DHT22;10281;54.406;18.556;2023-02-28T17:17:24;2.50;99.90
20246;DHT22;10281;54.406;18.556;2023-02-28T17:19:51;2.40;99.90
20246;DHT22;10281;54.406;18.556;2023-02-28T17:22:18;2.50;99.90
20246;DHT22;10281;54.406;18.556;2023-02-28T17:24:44;2.50;99.90
20246;DHT22;10281;54.406;18.556;2023-02-28T17:27:12;2.60;99.90
20246;DHT22;10281;54.406;18.556;2023-02-28T17:29:39;2.50;99.90
20246;DHT22;10281;54.406;18.556;2023-02-28T17:32:05;2.60;99.90
20246;DHT22;10281;54.406;18.556;2023-02-28T17:34:32;2.40;99.90
20246;DHT22;10281;54.406;18.556;2023-02-28T17:36:58;2.50;99.90
20246;DHT22;10281;54.406;18.556;2023-02-28T17:39:25;2.70;99.90
20246;DHT22;10281;54.406;18.556;2023-02-28T17:41:52;2.40;99.90
20246;DHT22;10281;54.406;18.556;2023-02-28T17:44:20;2.40;99.90
20246;DHT22;10281;54.406;18.556;2023-02-28T17:46:47;2.60;99.90
20246;DHT22;10281;54.406;18.556;2023-02-28T17:49:16;1.90;99.90
20246;DHT22;10281;54.406;18.556;2023-02-28T17:51:43;2.40;99.90
20246;DHT22;10281;54.406;18.556;2023-02-28T17:54:10;2.30;99.90